createdAt,value
2018-08-28T00:00:49.853Z,8.70
2018-08-28T00:03:18.250Z,9.57
2018-08-28T00:05:46.648Z,9.60
2018-08-28T00:08:15.027Z,9.77
2018-08-28T00:10:43.431Z,9.07
2018-08-28T00:13:11.984Z,6.77
2018-08-28T00:15:40.429Z,10.10
2018-08-28T00:18:08.876Z,8.17
2018-08-28T00:20:37.254Z,9.57
2018-08-28T00:23:05.754Z,9.73
2018-08-28T00:25:34.200Z,10.20
2018-08-28T00:28:02.646Z,14.80
2018-08-28T00:30:31.256Z,9.00
2018-08-28T00:32:59.633Z,8.63
2018-08-28T00:35:28.230Z,9.87
2018-08-28T00:37:56.629Z,12.07
2018-08-28T00:40:24.989Z,6.70
2018-08-28T00:42:53.383Z,9.53
2018-08-28T00:45:22.084Z,8.47
2018-08-28T00:47:50.616Z,7.23
2018-08-28T00:50:18.968Z,7.43
2018-08-28T00:52:47.423Z,8.27
2018-08-28T00:55:15.817Z,10.03
2018-08-28T00:57:44.190Z,11.27
2018-08-28T01:00:12.645Z,10.57
2018-08-28T01:02:41.044Z,8.37
2018-08-28T01:05:09.853Z,7.50
2018-08-28T01:07:38.610Z,9.37
2018-08-28T01:10:07.586Z,8.10
2018-08-28T01:12:36.210Z,12.53
2018-08-28T01:15:04.904Z,11.90
2018-08-28T01:17:34.005Z,13.37
2018-08-28T01:20:02.412Z,8.53
2018-08-28T01:22:30.793Z,14.00
2018-08-28T01:24:59.236Z,12.60
2018-08-28T01:27:27.630Z,11.17
2018-08-28T01:29:55.953Z,9.77
2018-08-28T01:32:24.350Z,11.90
2018-08-28T01:34:52.717Z,9.47
2018-08-28T01:37:21.095Z,8.83
2018-08-28T01:39:49.493Z,12.57
2018-08-28T01:42:21.931Z,9.80
2018-08-28T01:44:50.704Z,9.73
2018-08-28T01:47:19.556Z,10.50
2018-08-28T01:49:48.140Z,9.80
2018-08-28T01:52:17.078Z,8.43
2018-08-28T01:54:45.484Z,11.17
2018-08-28T01:57:13.976Z,15.03
2018-08-28T01:59:42.344Z,9.70
2018-08-28T02:02:10.839Z,12.20
2018-08-28T02:04:39.526Z,7.87
2018-08-28T02:07:08.145Z,10.40
2018-08-28T02:09:36.813Z,11.53
2018-08-28T02:12:05.893Z,11.07
2018-08-28T02:14:34.258Z,11.27
2018-08-28T02:17:02.832Z,15.07
2018-08-28T02:19:31.401Z,10.77
2018-08-28T02:21:59.736Z,13.10
2018-08-28T02:24:28.167Z,10.83
2018-08-28T02:26:56.573Z,13.83
2018-08-28T02:29:24.989Z,11.43
2018-08-28T02:31:53.819Z,17.97
2018-08-28T02:34:22.557Z,11.83
2018-08-28T02:36:51.633Z,13.67
2018-08-28T02:39:20.399Z,12.17
2018-08-28T02:41:49.477Z,8.90
2018-08-28T02:44:18.890Z,9.77
2018-08-28T02:46:47.842Z,11.27
2018-08-28T02:49:16.979Z,10.90
2018-08-28T02:51:46.083Z,12.37
2018-08-28T02:54:15.151Z,11.40
2018-08-28T02:56:44.459Z,12.30
2018-08-28T02:59:13.761Z,10.93
2018-08-28T03:01:42.780Z,9.97
2018-08-28T03:04:11.911Z,9.60
2018-08-28T03:06:40.936Z,16.30
2018-08-28T03:09:10.205Z,14.27
2018-08-28T03:11:39.563Z,11.53
2018-08-28T03:14:08.642Z,14.13
2018-08-28T03:16:37.655Z,11.37
2018-08-28T03:19:06.786Z,8.97
2018-08-28T03:21:36.359Z,11.27
2018-08-28T03:24:05.653Z,12.40
2018-08-28T03:26:34.984Z,10.67
2018-08-28T03:29:03.470Z,10.87
2018-08-28T03:31:31.910Z,11.67
2018-08-28T03:34:00.320Z,9.47
2018-08-28T03:36:29.056Z,9.37
2018-08-28T03:38:57.456Z,10.57
2018-08-28T03:41:26.025Z,13.57
2018-08-28T03:43:54.481Z,8.50
2018-08-28T03:46:23.208Z,11.27
2018-08-28T03:48:51.567Z,8.90
2018-08-28T03:51:19.964Z,10.97
2018-08-28T03:53:48.368Z,10.40
2018-08-28T03:56:16.832Z,9.17
2018-08-28T03:58:45.282Z,12.03
2018-08-28T04:01:13.749Z,12.23
2018-08-28T04:03:42.270Z,9.87
2018-08-28T04:06:10.754Z,11.77
2018-08-28T04:08:39.431Z,9.73
2018-08-28T04:11:07.874Z,11.13
2018-08-28T04:13:36.592Z,11.90
2018-08-28T04:16:05.044Z,10.20
2018-08-28T04:18:33.397Z,8.43
2018-08-28T04:21:02.532Z,10.93
2018-08-28T04:23:30.950Z,9.03
2018-08-28T04:25:59.346Z,11.20
2018-08-28T04:28:27.850Z,12.30
2018-08-28T04:30:56.289Z,8.80
2018-08-28T04:33:24.685Z,13.60
2018-08-28T04:35:53.092Z,11.50
2018-08-28T04:38:21.797Z,10.57
2018-08-28T04:40:50.640Z,11.23
2018-08-28T04:43:19.108Z,12.43
2018-08-28T04:45:47.618Z,10.70
2018-08-28T04:48:16.118Z,14.87
2018-08-28T04:50:44.500Z,14.07
2018-08-28T04:53:12.872Z,8.67
2018-08-28T04:55:41.501Z,9.80
2018-08-28T04:58:09.959Z,12.10
2018-08-28T05:00:38.725Z,14.13
2018-08-28T05:03:07.101Z,12.90
2018-08-28T05:05:35.532Z,9.20
2018-08-28T05:08:03.903Z,9.97
2018-08-28T05:10:32.638Z,9.93
2018-08-28T05:13:01.048Z,8.20
2018-08-28T05:15:29.761Z,12.20
2018-08-28T05:17:58.241Z,9.73
2018-08-28T05:20:27.003Z,12.10
2018-08-28T05:22:55.480Z,11.60
2018-08-28T05:25:24.223Z,12.83
2018-08-28T05:27:53.418Z,11.00
2018-08-28T05:30:22.381Z,8.50
2018-08-28T05:32:50.845Z,9.40
2018-08-28T05:35:19.349Z,14.13
2018-08-28T05:37:47.711Z,15.67
2018-08-28T05:40:16.093Z,12.73
2018-08-28T05:42:44.549Z,12.77
2018-08-28T05:45:12.922Z,12.43
2018-08-28T05:47:41.480Z,9.13
2018-08-28T05:50:09.942Z,9.07
2018-08-28T05:52:38.462Z,10.87
2018-08-28T05:55:07.230Z,9.43
2018-08-28T05:57:35.833Z,9.13
2018-08-28T06:00:04.565Z,10.37
2018-08-28T06:02:33.016Z,12.53
2018-08-28T06:05:01.545Z,10.33
2018-08-28T06:07:29.962Z,8.90
2018-08-28T06:09:58.872Z,13.53
2018-08-28T06:12:27.378Z,12.33
2018-08-28T06:14:55.857Z,11.43
2018-08-28T06:17:24.298Z,9.00
2018-08-28T06:19:52.768Z,12.60
2018-08-28T06:22:21.190Z,12.87
2018-08-28T06:24:49.610Z,10.33
2018-08-28T06:27:18.040Z,10.37
2018-08-28T06:29:46.513Z,11.50
2018-08-28T06:32:15.033Z,10.53
2018-08-28T06:34:43.482Z,12.27
2018-08-28T06:37:11.929Z,10.10
2018-08-28T06:39:40.373Z,9.13
2018-08-28T06:42:08.784Z,9.20
2018-08-28T06:44:37.500Z,8.27
2018-08-28T06:47:05.931Z,11.20
2018-08-28T06:49:34.461Z,10.03
2018-08-28T06:52:03.138Z,12.60
2018-08-28T06:54:31.654Z,12.33
2018-08-28T06:57:00.785Z,12.70
2018-08-28T06:59:29.224Z,8.93
2018-08-28T07:01:57.733Z,11.97
2018-08-28T07:04:26.201Z,10.03
2018-08-28T07:06:54.977Z,9.17
2018-08-28T07:09:24.220Z,8.97
2018-08-28T07:11:52.816Z,13.43
2018-08-28T07:14:21.518Z,11.67
2018-08-28T07:16:49.924Z,8.03
2018-08-28T07:19:18.283Z,11.93
2018-08-28T07:21:46.691Z,9.03
2018-08-28T07:24:15.973Z,11.67
2018-08-28T07:26:44.420Z,19.47
2018-08-28T07:29:12.826Z,8.03
2018-08-28T07:31:41.371Z,10.73
2018-08-28T07:34:09.808Z,14.20
2018-08-28T07:36:38.539Z,13.30
2018-08-28T07:39:07.193Z,13.80
2018-08-28T07:41:35.717Z,14.20
2018-08-28T07:44:04.211Z,11.90
2018-08-28T07:46:32.607Z,11.70
2018-08-28T07:49:00.980Z,13.67
2018-08-28T07:51:29.464Z,8.10
2018-08-28T07:53:57.930Z,12.33
2018-08-28T07:56:26.320Z,11.80
2018-08-28T07:58:54.759Z,10.40
2018-08-28T08:01:23.294Z,11.90
2018-08-28T08:03:51.857Z,9.87
2018-08-28T08:06:20.223Z,9.13
2018-08-28T08:08:48.980Z,11.77
2018-08-28T08:11:17.409Z,11.13
2018-08-28T08:13:45.798Z,8.53
2018-08-28T08:16:14.247Z,8.97
2018-08-28T08:18:42.694Z,10.13
2018-08-28T08:21:11.264Z,10.13
2018-08-28T08:23:39.692Z,11.87
2018-08-28T08:26:08.156Z,7.43
2018-08-28T08:28:36.525Z,10.53
2018-08-28T08:31:04.952Z,12.83
2018-08-28T08:33:33.626Z,12.33
2018-08-28T08:36:01.996Z,8.50
2018-08-28T08:38:30.427Z,9.13
2018-08-28T08:40:58.869Z,13.13
2018-08-28T08:43:27.533Z,11.73
2018-08-28T08:45:55.944Z,8.03
2018-08-28T08:48:24.584Z,8.60
2018-08-28T08:50:53.173Z,7.90
2018-08-28T08:53:21.916Z,10.90
2018-08-28T08:55:50.777Z,9.57
2018-08-28T08:58:19.521Z,9.63
2018-08-28T09:00:48.046Z,8.53
2018-08-28T09:03:16.461Z,7.77
2018-08-28T09:05:45.244Z,8.90
2018-08-28T09:08:13.708Z,9.00
2018-08-28T09:10:42.113Z,8.50
2018-08-28T09:13:10.530Z,8.03
2018-08-28T09:15:38.984Z,9.57
2018-08-28T09:18:07.358Z,12.03
2018-08-28T09:20:35.742Z,8.07
2018-08-28T09:23:04.105Z,9.73
2018-08-28T09:25:32.540Z,10.00
2018-08-28T09:28:00.933Z,9.63
2018-08-28T09:30:29.278Z,9.00
2018-08-28T09:32:57.656Z,8.67
2018-08-28T09:35:26.048Z,7.97
2018-08-28T09:37:54.566Z,10.43
2018-08-28T09:40:23.215Z,8.20
2018-08-28T09:42:51.621Z,11.23
2018-08-28T09:45:19.978Z,10.80
2018-08-28T09:47:48.411Z,8.93
2018-08-28T09:50:17.229Z,6.93
2018-08-28T09:52:45.562Z,8.43
2018-08-28T09:55:14.052Z,10.30
2018-08-28T09:57:42.479Z,9.07
2018-08-28T10:00:16.161Z,8.47
2018-08-28T10:02:44.635Z,9.40
2018-08-28T10:05:12.993Z,8.37
2018-08-28T10:07:41.387Z,7.93
2018-08-28T10:10:09.792Z,7.47
2018-08-28T10:12:38.189Z,8.67
2018-08-28T10:15:06.789Z,8.17
2018-08-28T10:17:35.269Z,7.67
2018-08-28T10:20:04.131Z,8.47
2018-08-28T10:22:32.936Z,7.43
2018-08-28T10:25:01.376Z,9.50
2018-08-28T10:27:29.808Z,9.40
2018-08-28T10:29:58.283Z,11.70
2018-08-28T10:32:26.643Z,9.50
2018-08-28T10:34:55.091Z,9.13
2018-08-28T10:37:23.610Z,9.50
2018-08-28T10:39:52.100Z,7.83
2018-08-28T10:42:20.552Z,10.20
2018-08-28T10:44:48.964Z,9.73
2018-08-28T10:47:17.353Z,10.03
2018-08-28T10:49:45.680Z,10.40
2018-08-28T10:52:14.454Z,9.13
2018-08-28T10:54:42.809Z,7.70
2018-08-28T10:57:11.993Z,8.20
2018-08-28T10:59:40.386Z,10.70
2018-08-28T11:02:08.780Z,10.33
2018-08-28T11:04:37.349Z,10.97
2018-08-28T11:07:05.654Z,12.03
2018-08-28T11:09:34.372Z,8.97
2018-08-28T11:12:02.792Z,13.97
2018-08-28T11:14:31.201Z,10.10
2018-08-28T11:16:59.507Z,11.73
2018-08-28T11:19:27.907Z,10.03
2018-08-28T11:21:56.625Z,10.60
2018-08-28T11:24:25.248Z,9.60
2018-08-28T11:26:53.805Z,8.80
2018-08-28T11:29:22.183Z,9.03
2018-08-28T11:31:50.724Z,9.10
2018-08-28T11:34:20.006Z,10.63
2018-08-28T11:36:48.396Z,12.67
2018-08-28T11:39:16.828Z,11.23
2018-08-28T11:41:45.156Z,9.40
2018-08-28T11:44:13.831Z,7.20
2018-08-28T11:46:42.261Z,8.37
2018-08-28T11:49:10.896Z,9.37
2018-08-28T11:51:39.276Z,9.17
2018-08-28T11:54:07.871Z,8.60
2018-08-28T11:56:36.552Z,8.83
2018-08-28T11:59:04.988Z,10.63
2018-08-28T12:01:33.385Z,10.97
2018-08-28T12:04:02.113Z,7.17
2018-08-28T12:06:30.514Z,8.57
2018-08-28T12:08:58.945Z,9.50
2018-08-28T12:11:27.289Z,8.97
2018-08-28T12:13:55.680Z,9.03
2018-08-28T12:16:24.130Z,9.27
2018-08-28T12:18:52.535Z,11.10
2018-08-28T12:21:20.945Z,8.80
2018-08-28T12:23:49.380Z,9.70
2018-08-28T12:26:18.050Z,9.97
2018-08-28T12:28:46.476Z,9.43
2018-08-28T12:31:15.104Z,10.40
2018-08-28T12:33:43.747Z,8.77
2018-08-28T12:36:12.155Z,10.67
2018-08-28T12:38:40.600Z,11.10
2018-08-28T12:41:08.932Z,9.37
2018-08-28T12:43:37.496Z,12.43
2018-08-28T12:46:06.315Z,11.30
2018-08-28T12:48:34.703Z,9.83
2018-08-28T12:51:03.122Z,10.00
2018-08-28T12:53:31.447Z,11.07
2018-08-28T12:55:59.827Z,12.50
2018-08-28T12:58:28.286Z,9.53
2018-08-28T13:00:56.681Z,9.67
2018-08-28T13:03:25.476Z,10.60
2018-08-28T13:05:54.225Z,9.47
2018-08-28T13:08:22.665Z,9.90
2018-08-28T13:10:51.376Z,11.37
2018-08-28T13:13:19.933Z,9.53
2018-08-28T13:15:48.295Z,10.57
2018-08-28T13:18:18.021Z,10.53
2018-08-28T13:20:46.408Z,12.07
2018-08-28T13:23:15.252Z,9.23
2018-08-28T13:25:43.708Z,12.87
2018-08-28T13:28:12.588Z,10.13
2018-08-28T13:30:41.448Z,10.23
2018-08-28T13:33:10.545Z,18.30
2018-08-28T13:35:39.122Z,9.73
2018-08-28T13:38:07.632Z,10.53
2018-08-28T13:40:36.282Z,15.27
2018-08-28T13:43:05.059Z,9.00
2018-08-28T13:45:33.918Z,11.40
2018-08-28T13:48:02.387Z,9.37
2018-08-28T13:50:31.027Z,9.10
2018-08-28T13:52:59.509Z,9.60
2018-08-28T13:55:28.517Z,10.77
2018-08-28T13:57:57.139Z,13.47
2018-08-28T14:00:25.913Z,10.77
2018-08-28T14:02:54.707Z,10.87
2018-08-28T14:05:23.345Z,10.13
2018-08-28T14:07:51.874Z,13.30
2018-08-28T14:10:20.718Z,12.83
2018-08-28T14:12:49.174Z,13.30
2018-08-28T14:15:17.931Z,11.13
2018-08-28T14:17:46.583Z,11.70
2018-08-28T14:20:15.241Z,11.13
2018-08-28T14:22:43.760Z,11.20
2018-08-28T14:25:12.626Z,12.13
2018-08-28T14:27:41.015Z,10.97
2018-08-28T14:30:10.047Z,10.93
2018-08-28T14:32:39.146Z,14.00
2018-08-28T14:35:07.847Z,10.13
2018-08-28T14:37:37.061Z,10.07
2018-08-28T14:40:05.648Z,10.53
2018-08-28T14:42:34.371Z,10.50
2018-08-28T14:45:03.261Z,9.63
2018-08-28T14:47:31.991Z,12.43
2018-08-28T14:50:00.884Z,11.60
2018-08-28T14:52:29.435Z,10.77
2018-08-28T14:54:57.859Z,10.73
2018-08-28T14:57:27.158Z,10.50
2018-08-28T14:59:55.856Z,11.27
2018-08-28T15:02:24.572Z,11.37
2018-08-28T15:04:53.376Z,11.03
2018-08-28T15:07:21.852Z,9.67
2018-08-28T15:09:50.542Z,10.73
2018-08-28T15:12:19.049Z,11.07
2018-08-28T15:14:48.414Z,11.13
2018-08-28T15:17:17.333Z,11.10
2018-08-28T15:19:45.674Z,12.40
2018-08-28T15:22:14.321Z,10.23
2018-08-28T15:24:42.777Z,11.50
2018-08-28T15:27:11.331Z,12.67
2018-08-28T15:29:41.681Z,12.00
2018-08-28T15:32:11.558Z,12.33
2018-08-28T15:34:39.985Z,9.70
2018-08-28T15:37:08.517Z,10.60
2018-08-28T15:39:36.946Z,12.30
2018-08-28T15:42:05.716Z,12.40
2018-08-28T15:44:34.245Z,10.07
2018-08-28T15:47:02.976Z,9.30
2018-08-28T15:49:31.651Z,10.13
2018-08-28T15:52:00.070Z,12.37
2018-08-28T15:54:28.663Z,10.40
2018-08-28T15:56:57.391Z,13.63
2018-08-28T15:59:26.298Z,10.70
2018-08-28T16:01:56.715Z,11.10
2018-08-28T16:04:25.083Z,10.30
2018-08-28T16:06:53.798Z,13.50
2018-08-28T16:09:23.365Z,9.37
2018-08-28T16:11:51.887Z,9.13
2018-08-28T16:14:20.579Z,11.47
2018-08-28T16:16:49.556Z,8.30
2018-08-28T16:19:18.239Z,9.77
2018-08-28T16:21:54.142Z,11.33
2018-08-28T16:24:23.138Z,9.47
2018-08-28T16:26:52.050Z,10.83
2018-08-28T16:29:20.769Z,10.27
2018-08-28T16:31:49.694Z,11.70
2018-08-28T16:34:18.294Z,9.30
2018-08-28T16:36:46.895Z,13.03
2018-08-28T16:39:15.626Z,10.07
2018-08-28T16:41:44.167Z,13.33
2018-08-28T16:44:12.877Z,13.57
2018-08-28T16:46:42.614Z,12.87
2018-08-28T16:49:11.455Z,10.43
2018-08-28T16:51:40.278Z,10.20
2018-08-28T16:54:09.469Z,11.07
2018-08-28T16:56:38.347Z,10.60
2018-08-28T16:59:07.282Z,8.43
2018-08-28T17:01:35.964Z,8.63
2018-08-28T17:04:04.597Z,7.93
2018-08-28T17:06:33.167Z,9.43
2018-08-28T17:09:01.701Z,12.37
2018-08-28T17:11:30.076Z,10.07
2018-08-28T17:13:58.446Z,11.23
2018-08-28T17:16:26.870Z,7.97
2018-08-28T17:18:55.500Z,7.57
2018-08-28T17:21:24.219Z,10.50
2018-08-28T17:23:52.629Z,8.60
2018-08-28T17:26:21.019Z,8.57
2018-08-28T17:28:49.476Z,10.80
2018-08-28T17:31:18.002Z,9.80
2018-08-28T17:33:46.602Z,9.07
2018-08-28T17:36:15.032Z,8.10
2018-08-28T17:38:43.699Z,9.17
2018-08-28T17:41:12.616Z,7.97
2018-08-28T17:43:40.993Z,9.13
2018-08-28T17:46:09.457Z,8.63
2018-08-28T17:48:38.392Z,10.70
2018-08-28T17:51:06.974Z,14.00
2018-08-28T17:53:36.783Z,9.20
2018-08-28T17:56:05.286Z,7.93
2018-08-28T17:58:33.930Z,12.50
2018-08-28T18:01:02.560Z,11.00
2018-08-28T18:03:31.189Z,8.23
2018-08-28T18:05:59.607Z,11.10
2018-08-28T18:08:28.369Z,9.27
2018-08-28T18:10:56.873Z,7.87
2018-08-28T18:13:25.696Z,9.93
2018-08-28T18:15:54.181Z,9.47
2018-08-28T18:18:23.127Z,8.97
2018-08-28T18:20:53.822Z,9.20
2018-08-28T18:23:22.246Z,9.33
2018-08-28T18:25:50.688Z,12.00
2018-08-28T18:28:19.147Z,9.27
2018-08-28T18:30:47.849Z,12.73
2018-08-28T18:33:16.935Z,11.93
2018-08-28T18:35:45.405Z,11.33
2018-08-28T18:38:13.942Z,11.70
2018-08-28T18:40:42.510Z,9.07
2018-08-28T18:43:11.237Z,10.37
2018-08-28T18:45:39.844Z,11.83
2018-08-28T18:48:08.219Z,12.43
2018-08-28T18:50:36.687Z,13.77
2018-08-28T18:53:05.124Z,16.17
2018-08-28T18:55:33.677Z,14.70
2018-08-28T18:58:02.428Z,18.23
2018-08-28T19:00:31.063Z,16.43
2018-08-28T19:02:59.644Z,16.30
2018-08-28T19:12:15.210Z,16.80
2018-08-28T19:14:44.244Z,22.33
2018-08-28T19:17:12.689Z,18.43
2018-08-28T19:19:41.158Z,18.73
2018-08-28T19:22:09.819Z,19.73
2018-08-28T19:24:38.666Z,20.63
2018-08-28T19:27:07.325Z,18.27
2018-08-28T19:29:36.167Z,16.70
2018-08-28T19:32:04.742Z,18.07
2018-08-28T19:34:33.420Z,21.70
2018-08-28T19:37:01.857Z,18.83
2018-08-28T19:39:30.343Z,17.87
2018-08-28T19:41:58.843Z,17.80
2018-08-28T19:44:27.353Z,19.40
2018-08-28T19:46:56.012Z,18.63
2018-08-28T19:49:24.390Z,18.50
2018-08-28T19:51:53.448Z,22.00
2018-08-28T19:54:22.106Z,20.07
2018-08-28T19:56:50.709Z,17.37
2018-08-28T19:59:19.271Z,18.23
2018-08-28T20:01:47.661Z,19.13
2018-08-28T20:04:16.065Z,18.03
2018-08-28T20:06:44.530Z,16.50
2018-08-28T20:09:12.928Z,19.47
2018-08-28T20:11:41.418Z,18.70
2018-08-28T20:14:09.809Z,22.13
2018-08-28T20:16:38.187Z,20.50
2018-08-28T20:19:06.613Z,18.20
2018-08-28T20:21:35.029Z,21.40
2018-08-28T20:24:03.477Z,19.97
2018-08-28T20:26:31.943Z,19.43
2018-08-28T20:29:00.300Z,21.03
2018-08-28T20:31:28.727Z,19.07
2018-08-28T20:33:57.132Z,19.33
2018-08-28T20:36:25.528Z,21.20
2018-08-28T20:38:53.947Z,19.60
2018-08-28T20:41:22.396Z,21.00
2018-08-28T20:43:50.867Z,19.03
2018-08-28T20:46:19.306Z,21.73
2018-08-28T20:48:47.715Z,20.20
2018-08-28T20:51:16.081Z,21.30
2018-08-28T20:53:44.534Z,21.20
2018-08-28T20:57:16.085Z,21.43
2018-08-28T20:59:44.568Z,19.53
2018-08-28T21:02:12.993Z,21.77
2018-08-28T21:04:41.475Z,19.73
2018-08-28T21:07:09.973Z,20.43
2018-08-28T21:09:38.379Z,20.97
2018-08-28T21:12:06.781Z,20.60
2018-08-28T21:14:35.201Z,21.20
2018-08-28T21:17:04.221Z,19.43
2018-08-28T21:19:32.864Z,19.30
2018-08-28T21:22:01.247Z,20.40
2018-08-28T21:24:29.680Z,20.63
2018-08-28T21:26:58.083Z,20.93
2018-08-28T21:29:26.624Z,22.73
2018-08-28T21:31:54.869Z,22.53
2018-08-28T21:34:23.239Z,22.17
2018-08-28T21:36:51.656Z,21.73
2018-08-28T21:39:20.048Z,22.87
2018-08-28T21:41:48.385Z,22.13
2018-08-28T21:44:16.739Z,22.57
2018-08-28T21:46:45.143Z,24.23
2018-08-28T21:49:13.486Z,26.30
2018-08-28T21:51:41.911Z,27.07
2018-08-28T21:54:10.397Z,25.53
2018-08-28T21:56:38.778Z,26.93
2018-08-28T21:59:07.163Z,27.13
2018-08-28T22:01:35.633Z,27.60
2018-08-28T22:04:04.015Z,26.87
2018-08-28T22:07:41.562Z,28.03
2018-08-28T22:10:10.328Z,27.13
2018-08-28T22:12:38.819Z,29.40
2018-08-28T22:15:14.343Z,29.70
2018-08-28T22:17:43.298Z,28.60
2018-08-28T22:20:11.769Z,31.03
2018-08-28T22:22:40.164Z,29.57
2018-08-28T22:25:08.544Z,30.00
2018-08-28T22:27:36.894Z,27.87
2018-08-28T22:30:06.565Z,30.10
2018-08-28T22:32:34.939Z,29.97
2018-08-28T22:35:03.317Z,29.90
2018-08-28T22:37:31.671Z,30.60
2018-08-28T22:40:00.087Z,31.00
2018-08-28T22:42:28.487Z,27.33
2018-08-28T22:44:56.798Z,31.30
2018-08-28T22:47:25.160Z,31.13
2018-08-28T22:49:53.576Z,32.60
2018-08-28T22:52:21.968Z,31.23
2018-08-28T22:54:50.391Z,30.93
2018-08-28T22:57:18.785Z,32.87
2018-08-28T22:59:47.166Z,31.77
2018-08-28T23:02:15.548Z,31.27
2018-08-28T23:04:43.921Z,29.70
2018-08-28T23:07:12.300Z,31.63
2018-08-28T23:09:40.655Z,32.37
2018-08-28T23:12:09.088Z,34.40
2018-08-28T23:14:37.387Z,31.10
2018-08-28T23:17:05.745Z,35.40
2018-08-28T23:19:34.123Z,31.67
2018-08-28T23:22:02.506Z,30.83
2018-08-28T23:24:30.856Z,33.23
2018-08-28T23:26:59.225Z,30.07
2018-08-28T23:29:27.555Z,32.13
2018-08-28T23:31:55.941Z,32.17
2018-08-28T23:34:24.286Z,33.83
2018-08-28T23:36:53.502Z,33.37
2018-08-28T23:39:21.901Z,29.23
2018-08-28T23:41:50.241Z,32.13
2018-08-28T23:44:18.608Z,31.00
2018-08-28T23:46:46.987Z,33.30
2018-08-28T23:49:15.327Z,32.47
2018-08-28T23:51:43.721Z,34.83
2018-08-28T23:54:12.044Z,30.93
2018-08-28T23:56:40.374Z,29.60
2018-08-28T23:59:08.846Z,32.83
